Time;durP1;ratioP1;P1;durP2;ratioP2;P2;SDS_P1;SDS_P2;PMS_P1;PMS_P2;Temp;Humidity;BMP_temperature;BMP_pressure;BME280_temperature;BME280_humidity;BME280_pressure;Samples;Min_cycle;Max_cycle;Signal;HPM_P1;HPM_P2
2021/06/30 00:04:31;;;;;;;3.88;3.53;;;;;;;15.99;84.21;101028.13;10540861;28;20059;-59
2021/06/30 00:09:39;;;;;;;3.70;3.40;;;;;;;16.20;84.25;101019.50;10539486;28;20044;-59
2021/06/30 00:14:46;;;;;;;2.75;2.55;;;;;;;16.12;83.28;101017.44;10539548;28;20052;-59
2021/06/30 00:19:53;;;;;;;3.33;3.13;;;;;;;15.92;83.95;101018.97;10539908;28;20040;-58
2021/06/30 00:25:00;;;;;;;3.85;3.38;;;;;;;15.82;85.51;101021.50;10539919;28;20050;-59
2021/06/30 00:30:08;;;;;;;3.47;3.15;;;;;;;15.86;84.80;101022.09;10539636;28;20052;-59
2021/06/30 00:35:16;;;;;;;3.75;3.25;;;;;;;15.86;85.93;101020.31;10539749;28;20126;-59
2021/06/30 00:40:24;;;;;;;2.83;2.63;;;;;;;15.86;85.60;101016.81;10538630;28;20058;-59
2021/06/30 00:45:31;;;;;;;4.50;3.17;;;;;;;15.67;85.95;101019.97;10538274;28;20044;-59
2021/06/30 00:50:39;;;;;;;3.25;2.75;;;;;;;15.83;84.69;101023.16;10539433;28;20058;-59
2021/06/30 00:55:50;;;;;;;3.25;2.53;;;;;;;15.68;86.48;101017.22;10547811;28;20467;-59
2021/06/30 01:00:58;;;;;;;3.60;2.22;;;;;;;15.61;85.27;101018.66;10546720;28;20159;-59
2021/06/30 01:06:05;;;;;;;2.47;2.38;;;;;;;15.59;86.19;101012.66;10547348;28;20389;-59
2021/06/30 01:11:13;;;;;;;3.53;2.65;;;;;;;15.68;86.21;101024.31;10547712;28;20404;-59
2021/06/30 01:16:20;;;;;;;4.22;2.63;;;;;;;15.56;85.84;101018.16;10547766;28;20123;-59
2021/06/30 01:21:27;;;;;;;9.35;4.22;;;;;;;15.63;86.95;101019.38;10547639;28;20058;-59
2021/06/30 01:26:35;;;;;;;3.25;2.95;;;;;;;15.58;86.10;101014.47;10546868;28;20127;-58
2021/06/30 01:31:42;;;;;;;2.05;1.90;;;;;;;15.93;85.12;101007.47;10546583;28;20052;-59
2021/06/30 01:36:52;;;;;;;2.35;2.15;;;;;;;15.57;86.36;101004.00;10546402;28;20517;-59
2021/06/30 01:42:01;;;;;;;2.15;1.88;;;;;;;15.26;87.64;101000.16;10546631;28;20055;-59
2021/06/30 01:47:08;;;;;;;1.50;1.40;;;;;;;15.36;86.51;100993.25;10546057;28;20059;-59
2021/06/30 01:52:16;;;;;;;7.07;2.65;;;;;;;15.20;86.40;100985.66;10546328;28;20044;-59
2021/06/30 01:57:23;;;;;;;2.53;2.33;;;;;;;15.38;87.17;100983.41;10545577;28;20126;-59
2021/06/30 02:02:31;;;;;;;2.30;1.90;;;;;;;15.34;86.29;100971.44;10545514;28;20136;-59
2021/06/30 02:07:39;;;;;;;2.30;2.20;;;;;;;15.22;87.21;100965.28;10545509;28;20058;-59
2021/06/30 02:12:46;;;;;;;3.00;2.72;;;;;;;15.04;87.57;100956.91;10545861;28;20062;-59
2021/06/30 02:17:58;;;;;;;2.90;2.58;;;;;;;15.17;86.68;100952.41;10543644;28;20047;-59
2021/06/30 02:23:05;;;;;;;2.97;2.67;;;;;;;15.18;87.56;100954.13;10545230;28;20042;-59
2021/06/30 02:28:13;;;;;;;3.15;2.95;;;;;;;15.04;87.14;100959.56;10544672;28;20048;-59
2021/06/30 02:33:20;;;;;;;2.67;2.40;;;;;;;15.27;86.78;100960.50;10544688;28;20067;-60
2021/06/30 02:38:27;;;;;;;4.70;3.30;;;;;;;15.17;87.39;100954.22;10543024;28;20125;-59
2021/06/30 02:43:35;;;;;;;3.85;3.33;;;;;;;15.19;85.88;100954.94;10543465;28;20044;-59
2021/06/30 02:48:42;;;;;;;3.08;2.78;;;;;;;15.37;86.97;100947.47;10543377;28;20044;-59
2021/06/30 02:53:49;;;;;;;7.80;2.70;;;;;;;15.26;86.26;100948.25;10542218;28;20044;-59
2021/06/30 02:58:57;;;;;;;2.65;2.35;;;;;;;15.05;86.87;100943.63;10543362;28;20576;-59
2021/06/30 03:04:04;;;;;;;2.70;2.50;;;;;;;14.88;87.39;100932.63;10543248;28;20131;-59
2021/06/30 03:09:13;;;;;;;3.20;2.90;;;;;;;15.07;87.00;100946.16;10542784;28;20498;-59
2021/06/30 03:14:20;;;;;;;4.50;4.10;;;;;;;14.95;87.01;100937.34;10541985;28;20558;-59
2021/06/30 03:19:28;;;;;;;4.03;3.65;;;;;;;14.95;87.02;100941.78;10543502;28;20126;-59
2021/06/30 03:24:35;;;;;;;2.97;2.78;;;;;;;15.15;86.00;100943.78;10543034;28;20071;-60
2021/06/30 03:29:42;;;;;;;3.30;2.65;;;;;;;14.77;87.82;100949.25;10542533;28;20054;-59
2021/06/30 03:34:50;;;;;;;3.72;2.50;;;;;;;14.99;86.43;100956.41;10541519;28;20052;-59
2021/06/30 03:39:57;;;;;;;2.50;2.20;;;;;;;15.10;86.16;100964.38;10541350;28;20067;-59
2021/06/30 03:45:05;;;;;;;3.00;2.80;;;;;;;14.79;87.06;100964.00;10541379;28;20119;-59
2021/06/30 03:50:13;;;;;;;2.17;1.98;;;;;;;14.85;85.52;100966.16;10541385;28;20052;-59
2021/06/30 03:55:20;;;;;;;2.58;2.10;;;;;;;15.01;86.31;100963.28;10540598;28;20048;-59
2021/06/30 04:00:27;;;;;;;3.80;3.10;;;;;;;14.83;86.38;100967.25;10540962;28;20040;-59
2021/06/30 04:05:35;;;;;;;4.18;2.33;;;;;;;14.65;86.27;100972.88;10541242;28;20056;-59
2021/06/30 04:10:42;;;;;;;3.63;2.63;;;;;;;14.85;86.86;100981.16;10540640;28;20054;-59
2021/06/30 04:15:50;;;;;;;2.65;2.33;;;;;;;14.85;87.47;100989.06;10540711;28;20127;-59
2021/06/30 04:20:57;;;;;;;3.70;2.83;;;;;;;14.84;86.91;100982.97;10540445;28;20376;-59
2021/06/30 04:26:05;;;;;;;3.05;2.75;;;;;;;14.64;87.37;100981.75;10539037;28;20566;-60
2021/06/30 04:31:12;;;;;;;3.25;2.95;;;;;;;14.85;86.36;100989.06;10539965;28;20051;-59
2021/06/30 04:36:19;;;;;;;3.50;3.13;;;;;;;14.62;87.13;100990.72;10539882;28;20438;-59
2021/06/30 04:41:26;;;;;;;4.13;2.80;;;;;;;14.97;86.23;100984.69;10539807;28;20509;-60
2021/06/30 04:46:34;;;;;;;3.47;2.70;;;;;;;14.90;85.97;100981.66;10539537;28;20514;-59
2021/06/30 04:51:42;;;;;;;3.72;3.33;;;;;;;14.74;87.63;100987.19;10539810;28;20048;-59
2021/06/30 04:56:49;;;;;;;4.60;3.70;;;;;;;15.04;86.42;100983.28;10539190;28;20048;-60
2021/06/30 05:01:57;;;;;;;6.10;4.40;;;;;;;14.65;87.94;100986.06;10538928;28;20503;-60
2021/06/30 05:07:04;;;;;;;3.60;3.22;;;;;;;14.94;86.75;100985.75;10538783;28;20040;-59
2021/06/30 05:12:11;;;;;;;3.13;2.92;;;;;;;14.77;86.22;100991.41;10538559;28;20500;-59
2021/06/30 05:17:18;;;;;;;3.75;2.97;;;;;;;14.96;87.50;100988.28;10538875;28;20481;-59
2021/06/30 05:22:26;;;;;;;5.15;3.72;;;;;;;14.72;87.68;100994.38;10539095;28;20077;-59
2021/06/30 05:27:33;;;;;;;5.53;3.20;;;;;;;14.96;86.71;100988.28;10538499;28;20051;-59
2021/06/30 05:32:40;;;;;;;4.05;3.30;;;;;;;15.09;86.15;100988.22;10539290;28;20044;-59
2021/06/30 05:37:48;;;;;;;6.97;3.78;;;;;;;14.74;88.00;100991.63;10540609;28;20119;-59
2021/06/30 05:42:55;;;;;;;5.82;3.75;;;;;;;14.92;86.59;100994.72;10547135;28;20044;-59
2021/06/30 05:48:03;;;;;;;2.85;2.65;;;;;;;15.22;86.34;101002.19;10546671;28;20399;-59
2021/06/30 05:53:10;;;;;;;6.30;3.75;;;;;;;15.07;85.78;101000.69;10545789;28;20154;-59
2021/06/30 05:58:17;;;;;;;6.32;4.32;;;;;;;14.94;86.44;100998.94;10545523;28;20044;-59
2021/06/30 06:03:24;;;;;;;6.90;4.65;;;;;;;15.03;86.69;100998.28;10544928;28;20058;-59
2021/06/30 06:08:32;;;;;;;4.00;3.67;;;;;;;14.96;86.84;101004.94;10545818;28;20047;-59
2021/06/30 06:13:40;;;;;;;6.93;4.60;;;;;;;14.86;87.47;101009.19;10545479;28;20135;-59
2021/06/30 06:18:48;;;;;;;8.48;5.05;;;;;;;15.02;86.75;101009.75;10545485;28;20044;-60
2021/06/30 06:23:56;;;;;;;3.75;3.40;;;;;;;15.06;86.96;100999.81;10545221;28;20044;-59
2021/06/30 06:29:04;;;;;;;4.80;4.22;;;;;;;15.15;84.90;101003.59;10544969;28;20044;-59
2021/06/30 06:34:12;;;;;;;4.60;4.20;;;;;;;15.27;86.54;101005.34;10544780;28;20047;-60
2021/06/30 06:39:20;;;;;;;4.35;3.95;;;;;;;15.29;87.23;101000.78;10544356;28;20601;-59
2021/06/30 06:44:27;;;;;;;7.93;4.03;;;;;;;15.48;85.99;101007.31;10544045;28;20415;-59
2021/06/30 06:49:34;;;;;;;4.32;3.92;;;;;;;15.41;85.76;101010.41;10543016;28;20052;-59
2021/06/30 06:54:42;;;;;;;4.50;4.07;;;;;;;15.24;86.87;101016.09;10545272;28;20051;-59
2021/06/30 06:59:49;;;;;;;4.53;3.70;;;;;;;15.33;85.58;101014.56;10543475;28;20044;-59
2021/06/30 07:04:56;;;;;;;5.38;4.80;;;;;;;15.27;85.83;101017.69;10543441;28;20503;-59
2021/06/30 07:10:04;;;;;;;3.83;3.53;;;;;;;15.40;84.75;101016.66;10542772;28;20048;-60
2021/06/30 07:15:12;;;;;;;4.32;3.50;;;;;;;15.59;85.39;101018.75;10543349;28;20048;-59
2021/06/30 07:20:19;;;;;;;5.35;4.85;;;;;;;15.35;86.33;101013.53;10542309;28;20047;-59
2021/06/30 07:25:26;;;;;;;3.05;2.85;;;;;;;15.33;84.43;101015.44;10542851;28;20048;-59
2021/06/30 07:30:33;;;;;;;3.92;3.17;;;;;;;15.34;85.63;101021.56;10542027;28;20048;-59
2021/06/30 07:35:41;;;;;;;3.47;3.17;;;;;;;15.44;85.80;101019.91;10542404;28;20058;-60
2021/06/30 07:40:48;;;;;;;2.75;2.55;;;;;;;15.83;83.95;101032.91;10541346;28;20487;-59
2021/06/30 07:45:56;;;;;;;2.47;2.38;;;;;;;15.74;84.87;101034.41;10541788;28;20082;-59
2021/06/30 07:50:58;;;;;;;6.78;3.08;;;;;;;15.68;84.63;101034.88;10541310;28;20047;-61
2021/06/30 07:56:00;;;;;;;3.20;2.83;;;;;;;15.70;85.62;101032.94;10540754;28;20099;-60
2021/06/30 08:01:03;;;;;;;4.13;3.67;;;;;;;15.57;85.48;101041.78;10541175;28;20085;-60
2021/06/30 08:06:05;;;;;;;4.10;3.03;;;;;;;15.21;87.07;101037.44;10541108;28;20055;-60
2021/06/30 08:11:07;;;;;;;4.05;3.63;;;;;;;15.19;86.99;101032.25;10539813;28;20059;-60
2021/06/30 08:16:10;;;;;;;5.07;3.58;;;;;;;15.28;86.38;101037.81;10540443;28;20043;-60
2021/06/30 08:21:13;;;;;;;3.20;2.92;;;;;;;15.35;85.48;101042.53;10540431;28;20044;-60
2021/06/30 08:26:15;;;;;;;2.88;2.67;;;;;;;15.67;85.49;101043.72;10540172;28;20055;-60
2021/06/30 08:31:18;;;;;;;3.95;2.10;;;;;;;16.09;83.96;101042.31;10539975;28;20044;-61
2021/06/30 08:36:20;;;;;;;2.20;2.10;;;;;;;16.06;84.21;101039.91;10539707;28;20483;-60
2021/06/30 08:41:22;;;;;;;2.55;2.45;;;;;;;15.47;85.84;101045.25;10539838;28;20426;-60
2021/06/30 08:46:26;;;;;;;3.20;2.90;;;;;;;15.49;86.02;101040.69;10539558;28;20045;-59
2021/06/30 08:51:29;;;;;;;3.00;2.80;;;;;;;15.51;85.10;101044.88;10538854;28;20045;-61
2021/06/30 08:56:31;;;;;;;3.00;2.80;;;;;;;15.97;83.84;101052.03;10539636;28;20068;-60
2021/06/30 09:01:34;;;;;;;3.17;2.97;;;;;;;16.07;84.97;101065.38;10538939;28;20051;-60
2021/06/30 09:06:36;;;;;;;3.03;2.83;;;;;;;16.26;83.30;101054.22;10539387;28;20048;-60
2021/06/30 09:11:39;;;;;;;3.47;3.17;;;;;;;15.90;84.47;101065.78;10539649;28;20052;-61
2021/06/30 09:17:06;;;;;;;3.53;3.33;;;;;;;15.86;83.48;101065.19;10547583;28;20047;-60
2021/06/30 09:22:08;;;;;;;4.15;3.85;;;;;;;15.95;84.20;101071.56;10547171;28;20055;-60
2021/06/30 09:27:13;;;;;;;3.88;3.58;;;;;;;15.96;82.76;101076.72;10546825;28;20055;-60
2021/06/30 09:32:17;;;;;;;3.65;3.35;;;;;;;16.09;83.68;101089.03;10547448;28;20040;-61
2021/06/30 09:37:28;;;;;;;4.60;4.30;;;;;;;16.14;84.58;101087.69;10546794;28;20520;-61
2021/06/30 09:42:31;;;;;;;4.30;3.88;;;;;;;16.24;83.21;101090.50;10546260;28;20062;-60
2021/06/30 09:47:48;;;;;;;4.28;3.97;;;;;;;16.04;83.92;101093.78;10546886;28;20126;-61
2021/06/30 09:52:50;;;;;;;4.63;4.03;;;;;;;16.09;85.25;101083.75;10546169;28;20048;-61
2021/06/30 09:57:53;;;;;;;3.97;3.67;;;;;;;16.07;82.29;101094.41;10544746;28;20044;-61
2021/06/30 10:02:56;;;;;;;4.00;3.80;;;;;;;16.02;84.53;101091.28;10544393;28;20078;-61
2021/06/30 10:08:13;;;;;;;6.00;5.40;;;;;;;16.03;84.76;101092.94;10544202;28;20484;-60
2021/06/30 10:13:15;;;;;;;4.05;3.75;;;;;;;16.28;83.07;101086.63;10545239;28;20040;-61
2021/06/30 10:18:18;;;;;;;4.55;3.92;;;;;;;16.12;83.64;101080.84;10543987;28;20048;-61
2021/06/30 10:23:21;;;;;;;4.95;4.55;;;;;;;16.38;83.76;101081.50;10542900;28;20048;-60
2021/06/30 10:28:23;;;;;;;4.28;3.97;;;;;;;16.47;83.57;101077.28;10544856;28;20048;-61
2021/06/30 10:33:37;;;;;;;4.50;4.20;;;;;;;16.93;81.63;101086.06;10543212;28;20403;-60
2021/06/30 10:38:55;;;;;;;4.55;4.18;;;;;;;16.83;83.03;101081.50;10545399;28;20043;-60
2021/06/30 10:44:17;;;;;;;4.07;3.70;;;;;;;16.77;82.81;101066.09;10544140;28;20055;-60
2021/06/30 10:49:28;;;;;;;4.35;3.97;;;;;;;17.64;81.08;101065.31;10543817;28;20472;-61
2021/06/30 10:54:33;;;;;;;3.20;3.00;;;;;;;18.16;79.86;101066.25;10543760;28;20055;-60
2021/06/30 11:00:15;;;;;;;2.80;2.60;;;;;;;17.90;79.71;101070.25;10543746;28;20083;-61
2021/06/30 11:05:17;;;;;;;2.77;2.57;;;;;;;17.92;77.01;101073.59;10455622;28;20057;-60
2021/06/30 11:10:50;;;;;;;2.70;2.50;;;;;;;17.56;78.26;101087.09;10531417;28;20044;-60
2021/06/30 11:15:52;;;;;;;3.83;3.08;;;;;;;17.62;80.80;101089.25;10541492;28;20462;-61
2021/06/30 11:21:16;;;;;;;3.30;3.08;;;;;;;17.09;80.52;101090.00;10542503;28;20047;-61
2021/06/30 11:26:36;;;;;;;3.00;2.80;;;;;;;16.79;81.33;101101.19;10542410;28;20054;-60
2021/06/30 11:31:38;;;;;;;2.58;2.38;;;;;;;16.63;79.89;101106.84;10542153;28;20442;-61
2021/06/30 11:36:42;;;;;;;4.20;3.13;;;;;;;17.20;79.05;101098.91;10540404;28;20135;-60
2021/06/30 11:41:48;;;;;;;3.05;2.85;;;;;;;17.59;79.68;101107.22;10542167;28;20055;-60
2021/06/30 11:47:01;;;;;;;4.85;3.50;;;;;;;17.05;76.77;101109.75;10541591;28;20052;-61
2021/06/30 11:52:04;;;;;;;4.68;4.28;;;;;;;18.01;77.18;101099.34;10540569;28;20044;-60
2021/06/30 11:57:07;;;;;;;7.05;5.03;;;;;;;17.42;81.24;101108.59;10541384;28;20067;-61
2021/06/30 12:02:09;;;;;;;5.30;4.80;;;;;;;16.87;81.31;101106.75;10541338;28;20434;-61
2021/06/30 12:07:11;;;;;;;4.43;4.10;;;;;;;17.19;79.30;101113.91;10540925;28;20487;-60
2021/06/30 12:12:14;;;;;;;5.40;4.80;;;;;;;16.93;82.45;101116.03;10540646;28;20407;-60
2021/06/30 12:17:20;;;;;;;6.15;5.60;;;;;;;16.85;83.17;101116.63;10540477;28;20040;-60
2021/06/30 12:22:34;;;;;;;5.95;5.45;;;;;;;16.84;82.37;101122.84;10540682;28;20052;-60
2021/06/30 12:27:47;;;;;;;7.93;6.55;;;;;;;16.28;82.16;101128.06;10540402;28;20072;-60
2021/06/30 12:32:55;;;;;;;6.80;6.15;;;;;;;16.96;79.96;101126.31;10540296;28;20052;-60
2021/06/30 12:38:01;;;;;;;6.15;5.55;;;;;;;16.93;81.34;101125.75;10539045;28;20048;-60
2021/06/30 12:43:21;;;;;;;7.60;6.85;;;;;;;16.52;81.78;101127.97;10540377;28;20480;-60
2021/06/30 12:48:25;;;;;;;7.13;6.57;;;;;;;17.16;80.27;101129.19;10538582;28;20062;-60
2021/06/30 12:53:32;;;;;;;9.05;8.15;;;;;;;16.66;82.36;101121.63;10522484;28;20044;-60
2021/06/30 12:58:48;;;;;;;8.93;8.10;;;;;;;16.96;81.39;101128.16;10539150;28;20044;-61
2021/06/30 13:03:52;;;;;;;8.88;8.05;;;;;;;16.67;83.47;101133.88;10538427;28;20060;-61
2021/06/30 13:09:06;;;;;;;9.20;8.18;;;;;;;16.94;81.56;101132.72;10539468;28;20052;-60
2021/06/30 13:14:14;;;;;;;11.63;10.43;;;;;;;16.22;84.06;101144.38;10538323;28;20048;-60
2021/06/30 13:19:20;;;;;;;10.25;9.25;;;;;;;16.14;86.15;101144.97;10539322;28;20055;-61
2021/06/30 13:24:32;;;;;;;10.93;9.32;;;;;;;16.42;84.92;101140.22;10538776;28;20048;-61
2021/06/30 13:35:22;;;;;;;8.97;7.87;;;;;;;16.12;84.71;101146.88;10538940;28;20044;-61
2021/06/30 13:40:26;;;;;;;9.88;8.70;;;;;;;16.37;83.26;101148.50;10537711;28;20151;-60
2021/06/30 13:45:35;;;;;;;9.65;8.65;;;;;;;16.46;84.50;101160.19;10538701;28;20561;-61
2021/06/30 13:50:40;;;;;;;10.52;9.60;;;;;;;16.84;83.75;101165.16;10539270;28;20048;-60
2021/06/30 13:55:46;;;;;;;10.30;9.23;;;;;;;16.27;84.87;101173.94;10538541;28;20055;-61
2021/06/30 14:00:49;;;;;;;11.75;9.88;;;;;;;16.26;84.56;101169.63;10543083;28;20052;-60
2021/06/30 14:05:51;;;;;;;16.25;10.30;;;;;;;16.10;84.04;101170.75;10546170;28;20055;-61
2021/06/30 14:10:58;;;;;;;11.85;8.70;;;;;;;16.18;85.16;101169.38;10545539;28;20044;-61
2021/06/30 14:16:00;;;;;;;10.43;9.38;;;;;;;16.01;84.61;101170.63;10545498;28;20067;-60
2021/06/30 14:21:03;;;;;;;11.13;9.25;;;;;;;16.49;84.06;101175.78;10545166;28;20072;-61
2021/06/30 14:26:06;;;;;;;10.68;9.20;;;;;;;16.31;84.83;101168.31;10545145;28;20044;-61
2021/06/30 14:31:09;;;;;;;10.57;8.75;;;;;;;16.51;82.43;101174.72;10544009;28;20499;-60
2021/06/30 14:36:12;;;;;;;13.68;9.55;;;;;;;16.04;84.86;101180.94;10544079;28;20052;-61
2021/06/30 14:41:14;;;;;;;10.23;9.23;;;;;;;15.74;85.24;101190.16;10544761;28;20052;-60
2021/06/30 14:46:16;;;;;;;11.32;9.43;;;;;;;15.93;85.92;101185.22;10543672;28;20048;-60
2021/06/30 14:51:19;;;;;;;12.60;9.57;;;;;;;16.01;84.08;101195.22;10543984;28;20040;-61
2021/06/30 14:56:21;;;;;;;12.50;8.32;;;;;;;16.13;85.09;101196.13;10543614;28;20055;-60
2021/06/30 15:01:23;;;;;;;10.57;7.68;;;;;;;16.15;83.99;101196.84;10544086;28;20048;-60
2021/06/30 15:06:26;;;;;;;9.38;8.20;;;;;;;16.22;83.43;101189.28;10543457;28;20052;-61
2021/06/30 15:11:28;;;;;;;8.32;7.53;;;;;;;16.39;83.42;101193.31;10542289;28;20051;-60
2021/06/30 15:16:32;;;;;;;10.48;7.65;;;;;;;16.15;82.51;101197.69;10542979;28;20044;-61
2021/06/30 15:21:36;;;;;;;8.63;7.60;;;;;;;16.14;84.83;101201.28;10542781;28;20064;-61
2021/06/30 15:26:39;;;;;;;10.40;8.30;;;;;;;16.41;83.16;101197.53;10542341;28;20400;-60
2021/06/30 15:31:41;;;;;;;9.98;8.95;;;;;;;15.97;83.75;101197.25;10542029;28;20048;-61
2021/06/30 15:36:44;;;;;;;11.45;10.40;;;;;;;15.88;85.59;101195.28;10541633;28;20079;-60
2021/06/30 15:41:49;;;;;;;11.98;8.43;;;;;;;16.30;84.29;101195.69;10541960;28;20059;-60
2021/06/30 15:46:53;;;;;;;10.70;8.73;;;;;;;16.26;84.31;101190.75;10541777;28;20051;-61
2021/06/30 15:51:55;;;;;;;11.52;8.82;;;;;;;16.43;83.33;101197.41;10541773;28;20075;-61
2021/06/30 15:56:57;;;;;;;13.50;9.85;;;;;;;16.54;83.21;101192.13;10541153;28;20040;-61
2021/06/30 16:02:00;;;;;;;11.10;9.20;;;;;;;16.45;83.18;101192.84;10541662;28;20052;-61
2021/06/30 16:07:03;;;;;;;11.93;10.00;;;;;;;16.34;83.27;101198.97;10540952;28;20086;-60
2021/06/30 16:12:10;;;;;;;9.80;8.85;;;;;;;16.41;84.50;101194.03;10541045;28;20044;-60
2021/06/30 16:17:12;;;;;;;13.52;9.07;;;;;;;16.14;83.77;101195.16;10540785;28;20055;-60
2021/06/30 16:22:17;;;;;;;13.23;9.75;;;;;;;16.11;83.63;101190.13;10539216;28;20491;-60
2021/06/30 16:27:19;;;;;;;9.85;8.88;;;;;;;16.07;82.79;101186.84;10540248;28;20055;-60
2021/06/30 16:32:22;;;;;;;12.10;10.68;;;;;;;15.66;84.35;101192.50;10540032;28;20519;-61
2021/06/30 16:37:24;;;;;;;12.20;10.07;;;;;;;15.71;84.71;101196.47;10539652;28;20079;-60
2021/06/30 16:42:27;;;;;;;10.88;9.68;;;;;;;15.31;85.55;101194.06;10539851;28;20064;-60
2021/06/30 16:47:30;;;;;;;10.70;8.15;;;;;;;15.42;86.51;101195.97;10539810;28;20138;-61
2021/06/30 16:52:32;;;;;;;8.52;7.80;;;;;;;15.57;85.43;101194.84;10539707;28;20052;-60
2021/06/30 16:57:35;;;;;;;6.85;6.25;;;;;;;15.24;85.90;101212.13;10539529;28;20397;-60
2021/06/30 17:02:38;;;;;;;4.63;4.18;;;;;;;15.17;85.21;101208.25;10539269;28;20048;-60
2021/06/30 17:07:40;;;;;;;5.07;4.57;;;;;;;15.36;84.80;101213.03;10539159;28;20403;-60
2021/06/30 17:12:43;;;;;;;5.07;4.32;;;;;;;15.49;85.08;101217.47;10539434;28;20055;-60
2021/06/30 17:17:49;;;;;;;8.30;5.32;;;;;;;15.38;85.15;101221.72;10539620;28;20040;-61
2021/06/30 17:22:51;;;;;;;7.53;6.18;;;;;;;15.10;85.73;101222.81;10539831;28;20048;-60
2021/06/30 17:27:54;;;;;;;6.50;5.07;;;;;;;14.91;86.57;101227.66;10521575;28;20055;-60
2021/06/30 17:32:57;;;;;;;9.27;5.70;;;;;;;14.93;85.72;101221.34;10538364;28;20055;-60
2021/06/30 17:38:01;;;;;;;9.98;6.88;;;;;;;14.77;86.63;101225.97;10547182;28;20044;-60
2021/06/30 17:43:03;;;;;;;8.73;7.18;;;;;;;14.98;85.55;101229.78;10546645;28;20487;-60
2021/06/30 17:48:07;;;;;;;8.38;7.57;;;;;;;14.97;85.58;101241.28;10546152;28;20054;-60
2021/06/30 17:53:11;;;;;;;10.27;9.13;;;;;;;14.65;86.30;101249.56;10546247;28;20386;-60
2021/06/30 17:58:13;;;;;;;8.75;7.95;;;;;;;14.63;86.45;101246.22;10545193;28;20048;-60
2021/06/30 18:03:15;;;;;;;13.75;7.40;;;;;;;14.57;86.68;101243.94;10546340;28;20055;-61
2021/06/30 18:08:18;;;;;;;8.35;7.60;;;;;;;14.81;85.16;101246.75;10545499;28;20475;-60
2021/06/30 18:13:20;;;;;;;9.13;7.55;;;;;;;14.72;86.19;101255.28;10545978;28;20054;-60
2021/06/30 18:18:23;;;;;;;9.65;8.35;;;;;;;14.70;86.93;101254.53;10544969;28;20077;-59
2021/06/30 18:23:25;;;;;;;10.68;8.68;;;;;;;14.75;87.43;101267.41;10545445;28;20048;-60
2021/06/30 18:28:28;;;;;;;10.55;8.82;;;;;;;14.53;87.91;101270.63;10545315;28;20048;-60
2021/06/30 18:33:30;;;;;;;9.25;7.75;;;;;;;14.60;87.24;101275.41;10544681;28;20051;-60
2021/06/30 18:38:33;;;;;;;7.78;6.97;;;;;;;14.49;86.24;101277.84;10544229;28;20488;-60
2021/06/30 18:43:37;;;;;;;8.88;7.97;;;;;;;14.04;87.91;101286.03;10544264;28;20052;-60
2021/06/30 18:48:39;;;;;;;8.98;8.07;;;;;;;14.16;87.63;101284.41;10543195;28;20046;-60
2021/06/30 18:53:42;;;;;;;9.60;8.65;;;;;;;14.06;89.27;101297.31;10544550;28;20048;-60
2021/06/30 18:58:44;;;;;;;13.52;8.63;;;;;;;14.18;87.17;101292.22;10543520;28;20048;-60
2021/06/30 19:03:46;;;;;;;12.55;10.48;;;;;;;13.91;88.53;101293.03;10543348;28;20062;-60
2021/06/30 19:08:52;;;;;;;16.90;11.20;;;;;;;14.00;89.19;101300.31;10543193;28;20052;-59
2021/06/30 19:13:55;;;;;;;14.63;10.60;;;;;;;14.01;87.88;101304.66;10542889;28;20040;-59
2021/06/30 19:18:58;;;;;;;14.73;11.23;;;;;;;13.96;89.52;101305.91;10542782;28;20047;-59
2021/06/30 19:24:01;;;;;;;13.50;10.82;;;;;;;14.02;89.15;101309.00;10543128;28;20048;-59
2021/06/30 19:29:07;;;;;;;12.90;9.55;;;;;;;13.80;89.60;101314.78;10542608;28;20403;-59
2021/06/30 19:34:10;;;;;;;21.05;11.30;;;;;;;13.77;88.41;101312.34;10542322;28;20373;-59
2021/06/30 19:39:12;;;;;;;13.35;10.75;;;;;;;13.94;88.38;101314.75;10542117;28;20048;-59
2021/06/30 19:44:14;;;;;;;12.82;10.98;;;;;;;13.84;88.43;101315.44;10542013;28;20059;-59
2021/06/30 19:49:17;;;;;;;20.17;14.48;;;;;;;13.85;89.92;101325.88;10542683;28;20044;-60
2021/06/30 19:54:22;;;;;;;16.77;12.05;;;;;;;14.02;88.08;101330.06;10541480;28;20047;-59
2021/06/30 19:59:25;;;;;;;19.02;14.60;;;;;;;13.89;89.64;101335.25;10539622;28;20088;-59
2021/06/30 20:04:28;;;;;;;19.10;13.15;;;;;;;13.82;88.61;101333.06;10541621;28;20052;-59
2021/06/30 20:09:30;;;;;;;24.02;16.52;;;;;;;13.82;88.13;101347.09;10540737;28;20404;-59
2021/06/30 20:14:32;;;;;;;36.22;19.95;;;;;;;13.64;90.11;101349.09;10540661;28;20051;-59
2021/06/30 20:19:35;;;;;;;24.42;17.70;;;;;;;13.83;88.67;101351.41;10539325;28;20048;-59
2021/06/30 20:24:37;;;;;;;19.40;15.43;;;;;;;13.81;87.80;101355.09;10540290;28;20054;-59
2021/06/30 20:29:44;;;;;;;36.88;21.13;;;;;;;13.61;89.62;101356.31;10539857;28;20044;-59
2021/06/30 20:34:46;;;;;;;38.90;21.45;;;;;;;13.65;90.49;101350.78;10539965;28;20444;-59
2021/06/30 20:39:48;;;;;;;32.85;20.77;;;;;;;13.88;89.77;101351.97;10540128;28;20051;-59
2021/06/30 20:44:51;;;;;;;17.42;15.52;;;;;;;13.76;88.32;101344.84;10539928;28;20503;-59
2021/06/30 20:49:53;;;;;;;21.48;17.90;;;;;;;13.72;88.59;101349.47;10539853;28;20047;-59
2021/06/30 20:54:56;;;;;;;32.05;19.48;;;;;;;13.75;89.03;101341.38;10539468;28;20045;-59
2021/06/30 20:59:58;;;;;;;29.33;19.33;;;;;;;13.65;90.07;101356.06;10539606;28;20055;-59
2021/06/30 21:05:00;;;;;;;26.88;20.75;;;;;;;13.67;89.37;101351.53;10539370;28;20493;-59
2021/06/30 21:10:05;;;;;;;27.98;20.77;;;;;;;13.67;89.63;101353.31;10544355;28;20087;-59
2021/06/30 21:15:09;;;;;;;38.67;24.45;;;;;;;13.67;89.57;101353.31;10546548;28;20380;-59
2021/06/30 21:20:13;;;;;;;35.67;23.88;;;;;;;13.61;90.48;101351.91;10529691;28;20545;-59
2021/06/30 21:25:15;;;;;;;32.97;21.35;;;;;;;13.59;90.00;101359.03;10547285;28;20051;-58
2021/06/30 21:30:18;;;;;;;27.63;20.00;;;;;;;13.76;88.47;101352.75;10547404;28;20055;-59
2021/06/30 21:35:20;;;;;;;29.33;20.23;;;;;;;13.63;89.15;101355.28;10546815;28;20519;-59
2021/06/30 21:40:23;;;;;;;33.47;21.40;;;;;;;13.51;90.41;101363.91;10546770;28;20411;-59
2021/06/30 21:45:25;;;;;;;22.48;18.00;;;;;;;13.57;89.20;101368.81;10546218;28;20050;-59
2021/06/30 21:50:27;;;;;;;34.28;20.83;;;;;;;13.72;89.64;101377.56;10546674;28;20051;-59
2021/06/30 21:55:31;;;;;;;24.85;17.85;;;;;;;13.67;89.35;101367.31;10546015;28;20044;-59
2021/06/30 22:00:33;;;;;;;26.65;17.25;;;;;;;13.75;88.78;101367.69;10546288;28;20048;-59
2021/06/30 22:05:35;;;;;;;31.00;19.10;;;;;;;13.77;88.39;101362.34;10545726;28;20051;-59
2021/06/30 22:10:38;;;;;;;37.35;21.60;;;;;;;13.63;90.04;101365.78;10545690;28;20044;-59
2021/06/30 22:15:40;;;;;;;28.98;18.88;;;;;;;13.48;89.89;101359.72;10545167;28;20510;-59
2021/06/30 22:20:47;;;;;;;26.33;16.95;;;;;;;13.60;88.23;101363.38;10545895;28;20062;-59
2021/06/30 22:25:50;;;;;;;29.65;18.70;;;;;;;13.62;88.87;101371.19;10545447;28;20040;-59
2021/06/30 22:30:53;;;;;;;25.45;17.92;;;;;;;13.46;89.17;101373.88;10544926;28;20047;-59
2021/06/30 22:35:56;;;;;;;28.95;17.80;;;;;;;13.49;88.59;101371.91;10544954;28;20051;-59
2021/06/30 22:40:58;;;;;;;26.42;17.55;;;;;;;13.52;89.40;101363.84;10544746;28;20051;-59
2021/06/30 22:46:01;;;;;;;21.42;15.15;;;;;;;13.60;88.44;101354.63;10544301;28;20044;-59
2021/06/30 22:51:03;;;;;;;32.75;19.88;;;;;;;13.74;89.24;101357.25;10543924;28;20059;-59
2021/06/30 22:56:05;;;;;;;39.13;22.42;;;;;;;13.49;89.61;101360.53;10543794;28;20044;-58
2021/06/30 23:01:08;;;;;;;37.28;23.90;;;;;;;13.45;89.87;101361.66;10543459;28;20051;-58
2021/06/30 23:06:10;;;;;;;32.33;21.48;;;;;;;13.50;89.54;101351.69;10543461;28;20123;-58
2021/06/30 23:11:13;;;;;;;40.22;22.15;;;;;;;13.57;90.16;101355.66;10542783;28;20047;-59
2021/06/30 23:16:16;;;;;;;44.42;24.85;;;;;;;13.62;89.46;101356.22;10542934;28;20043;-59
2021/06/30 23:21:18;;;;;;;43.03;23.55;;;;;;;13.30;91.16;101345.00;10543318;28;20063;-58